Time;durP1;ratioP1;P1;durP2;ratioP2;P2;SDS_P1;SDS_P2;PMS_P1;PMS_P2;Temp;Humidity;BMP_temperature;BMP_pressure;BME280_temperature;BME280_humidity;BME280_pressure;Samples;Min_cycle;Max_cycle;Signal;HPM_P1;HPM_P2
2023/06/07 00:02:20;;;;;;;;;;;;;;;16.79;44.49;101117.05;105362;1299;72232;-87
2023/06/07 00:05:06;;;;;;;;;;;;;;;16.82;44.73;101110.17;105381;1299;59350;-87
2023/06/07 00:07:52;;;;;;;;;;;;;;;16.82;44.69;101111.21;105440;1297;59180;-88
2023/06/07 00:10:37;;;;;;;;;;;;;;;16.80;44.59;101105.36;105369;1297;74066;-88
2023/06/07 00:13:24;;;;;;;;;;;;;;;16.76;44.85;101101.49;105524;1300;68491;-88
2023/06/07 00:16:10;;;;;;;;;;;;;;;16.72;44.86;101105.81;105427;1297;73015;-88
2023/06/07 00:18:57;;;;;;;;;;;;;;;16.66;44.90;101102.53;105413;1297;59047;-88
2023/06/07 00:21:43;;;;;;;;;;;;;;;16.66;45.04;101104.77;105455;1297;59378;-88
2023/06/07 00:24:29;;;;;;;;;;;;;;;16.70;45.06;101103.79;105410;1297;75164;-87
2023/06/07 00:27:15;;;;;;;;;;;;;;;16.71;45.05;101101.48;105461;1301;68507;-88
2023/06/07 00:30:03;;;;;;;;;;;;;;;16.68;45.07;101097.78;105331;1297;72613;-87
2023/06/07 00:32:49;;;;;;;;;;;;;;;16.61;45.19;101100.44;105509;1297;58788;-88
2023/06/07 00:35:35;;;;;;;;;;;;;;;16.56;45.27;101101.29;105451;1297;59126;-88
2023/06/07 00:38:22;;;;;;;;;;;;;;;16.53;45.37;101107.83;101417;1297;5152905;-88
2023/06/07 00:41:08;;;;;;;;;;;;;;;16.44;45.35;101106.02;105447;1297;68246;-88
2023/06/07 00:43:54;;;;;;;;;;;;;;;16.38;45.41;101104.67;105539;1297;72414;-88
2023/06/07 00:46:40;;;;;;;;;;;;;;;16.30;45.50;101104.91;105537;1297;59069;-88
2023/06/07 00:49:26;;;;;;;;;;;;;;;16.21;45.59;101105.02;105400;1297;59470;-88
2023/06/07 00:52:12;;;;;;;;;;;;;;;16.18;45.69;101100.77;105546;1297;75051;-88
2023/06/07 00:54:58;;;;;;;;;;;;;;;16.15;45.73;101098.08;105424;1297;68444;-87
2023/06/07 00:57:44;;;;;;;;;;;;;;;16.14;45.71;101104.04;105504;1297;72478;-88
2023/06/07 01:00:30;;;;;;;;;;;;;;;16.12;45.86;101102.71;105523;1297;59055;-88
2023/06/07 01:03:16;;;;;;;;;;;;;;;16.09;45.81;101106.30;105414;1297;59322;-88
2023/06/07 01:06:02;;;;;;;;;;;;;;;16.08;45.90;101106.86;105506;1297;73460;-88
2023/06/07 01:08:51;;;;;;;;;;;;;;;16.03;45.94;101110.16;105543;1297;68172;-87
2023/06/07 01:11:37;;;;;;;;;;;;;;;15.92;45.84;101110.98;105370;1298;71231;-88
2023/06/07 01:14:23;;;;;;;;;;;;;;;15.85;46.05;101108.60;105459;1297;59166;-88
2023/06/07 01:17:11;;;;;;;;;;;;;;;15.80;46.14;101109.10;105533;1297;58847;-88
2023/06/07 01:19:59;;;;;;;;;;;;;;;15.79;46.13;101107.36;105419;1298;75132;-88
2023/06/07 01:22:45;;;;;;;;;;;;;;;15.77;46.15;101107.78;105454;1299;67212;-88
2023/06/07 01:25:31;;;;;;;;;;;;;;;15.76;46.22;101101.56;105472;1297;70731;-88
2023/06/07 01:28:17;;;;;;;;;;;;;;;15.66;46.21;101100.63;105388;1299;58998;-88
2023/06/07 01:31:03;;;;;;;;;;;;;;;15.59;46.33;101100.49;105512;1297;59368;-88
2023/06/07 01:33:50;;;;;;;;;;;;;;;15.48;46.46;101107.41;105369;1299;73761;-88
2023/06/07 01:36:37;;;;;;;;;;;;;;;15.26;46.38;101108.35;105409;1297;69894;-88
2023/06/07 01:39:25;;;;;;;;;;;;;;;15.11;46.45;101100.45;105393;1297;70883;-88
2023/06/07 01:42:11;;;;;;;;;;;;;;;15.11;46.69;101101.84;105416;1297;59029;-88
2023/06/07 01:44:58;;;;;;;;;;;;;;;15.06;46.72;101101.63;105439;1297;59756;-88
2023/06/07 01:47:45;;;;;;;;;;;;;;;15.00;46.76;101109.63;105543;1297;74257;-88
2023/06/07 01:50:31;;;;;;;;;;;;;;;14.90;46.88;101108.14;105391;1297;67325;-88
2023/06/07 01:53:17;;;;;;;;;;;;;;;14.90;47.03;101106.23;105403;1299;72608;-88
2023/06/07 01:56:06;;;;;;;;;;;;;;;14.89;47.09;101106.09;105371;1299;60263;-87
2023/06/07 01:59:00;;;;;;;;;;;;;;;14.81;47.09;101106.81;105525;1297;60026;-88
2023/06/07 02:01:55;;;;;;;;;;;;;;;14.75;47.16;101106.09;105369;1297;73419;-87
2023/06/07 02:04:42;;;;;;;;;;;;;;;14.67;47.14;101102.48;105463;1299;67492;-87
2023/06/07 02:07:30;;;;;;;;;;;;;;;14.67;47.26;101095.89;105462;1297;72664;-88
2023/06/07 02:10:17;;;;;;;;;;;;;;;14.67;47.28;101098.85;105412;1298;59008;-88
2023/06/07 02:13:03;;;;;;;;;;;;;;;14.66;47.48;101096.26;105453;1298;60249;-88
2023/06/07 02:15:49;;;;;;;;;;;;;;;14.68;47.51;101089.60;105372;1299;75096;-88
2023/06/07 02:18:40;;;;;;;;;;;;;;;14.67;47.44;101087.90;105477;1297;68648;-87
2023/06/07 02:21:26;;;;;;;;;;;;;;;14.59;47.56;101087.94;105415;1297;71547;-87
2023/06/07 02:24:12;;;;;;;;;;;;;;;14.56;47.52;101087.84;105357;1297;59041;-87
2023/06/07 02:26:58;;;;;;;;;;;;;;;14.52;47.51;101090.39;105426;1297;60278;-87
2023/06/07 02:29:44;;;;;;;;;;;;;;;14.43;47.87;101090.77;105484;1299;74451;-88
2023/06/07 02:32:33;;;;;;;;;;;;;;;14.27;47.77;101093.38;105418;1297;67462;-88
2023/06/07 02:35:20;;;;;;;;;;;;;;;14.24;47.82;101092.75;105556;1297;71246;-88
2023/06/07 02:38:06;;;;;;;;;;;;;;;14.19;47.82;101094.59;105404;1297;59454;-88
2023/06/07 02:40:54;;;;;;;;;;;;;;;14.11;47.97;101093.76;105486;1297;59481;-88
2023/06/07 02:43:40;;;;;;;;;;;;;;;14.06;48.05;101098.20;105416;1297;73803;-88
2023/06/07 02:46:26;;;;;;;;;;;;;;;14.05;48.08;101097.54;105516;1297;68476;-88
2023/06/07 02:49:12;;;;;;;;;;;;;;;14.02;48.15;101100.40;105394;1297;71273;-88
2023/06/07 02:51:59;;;;;;;;;;;;;;;14.07;48.39;101094.88;105434;1297;59320;-88
2023/06/07 02:54:45;;;;;;;;;;;;;;;14.11;48.12;101095.14;105572;1297;58955;-88
2023/06/07 02:57:31;;;;;;;;;;;;;;;14.07;48.21;101100.60;105356;1297;73356;-88
2023/06/07 03:00:17;;;;;;;;;;;;;;;14.06;48.22;101104.27;105415;1297;66505;-88
2023/06/07 03:03:05;;;;;;;;;;;;;;;14.06;48.26;101105.83;105417;1298;72052;-88
2023/06/07 03:05:52;;;;;;;;;;;;;;;14.06;48.41;101104.95;105494;1299;59028;-88
2023/06/07 03:08:38;;;;;;;;;;;;;;;14.13;48.47;101100.30;105445;1299;59528;-88
2023/06/07 03:11:25;;;;;;;;;;;;;;;14.17;48.48;101100.55;105556;1297;73403;-88
2023/06/07 03:14:10;;;;;;;;;;;;;;;14.20;48.53;101101.86;105454;1299;67538;-88
2023/06/07 03:16:57;;;;;;;;;;;;;;;14.22;48.48;101102.33;105384;1299;71250;-88
2023/06/07 03:19:43;;;;;;;;;;;;;;;14.25;48.68;101104.36;105429;1297;58765;-88
2023/06/07 03:22:29;;;;;;;;;;;;;;;14.27;48.61;101105.53;105354;1297;59241;-88
2023/06/07 03:25:15;;;;;;;;;;;;;;;14.28;48.74;101103.58;105537;1297;73354;-89
2023/06/07 03:28:01;;;;;;;;;;;;;;;14.27;48.66;101107.26;105569;1297;67724;-88
2023/06/07 03:30:47;;;;;;;;;;;;;;;14.28;48.89;101107.23;105456;1297;71463;-88
2023/06/07 03:33:33;;;;;;;;;;;;;;;14.31;48.94;101105.61;105367;1300;58966;-88
2023/06/07 03:36:28;;;;;;;;;;;;;;;14.28;48.98;101107.41;105598;1296;60003;-88
2023/06/07 03:39:14;;;;;;;;;;;;;;;14.30;49.00;101100.42;105457;1299;73386;-88
2023/06/07 03:42:00;;;;;;;;;;;;;;;14.36;49.12;101103.23;105506;1299;67258;-88
2023/06/07 03:44:46;;;;;;;;;;;;;;;14.39;49.22;101106.80;105465;1296;72350;-88
2023/06/07 03:47:32;;;;;;;;;;;;;;;14.41;49.19;101107.29;105440;1297;59138;-88
2023/06/07 03:50:18;;;;;;;;;;;;;;;14.48;49.22;101105.58;105372;1297;59404;-88
2023/06/07 03:53:04;;;;;;;;;;;;;;;14.55;49.30;101104.54;105411;1299;73902;-88
2023/06/07 03:55:50;;;;;;;;;;;;;;;14.63;49.36;101106.23;105381;1299;67918;-88
2023/06/07 03:58:36;;;;;;;;;;;;;;;14.70;49.44;101102.94;105544;1296;72225;-87
2023/06/07 04:01:25;;;;;;;;;;;;;;;14.78;49.43;101105.67;105446;1297;59091;-86
2023/06/07 04:04:11;;;;;;;;;;;;;;;14.82;49.52;101104.70;105504;1299;59915;-86
2023/06/07 04:06:57;;;;;;;;;;;;;;;14.91;49.57;101107.59;105551;1297;73727;-86
2023/06/07 04:09:43;;;;;;;;;;;;;;;15.12;49.63;101102.51;105380;1297;67321;-86
2023/06/07 04:12:27;;;;;;;;;;;;;;;15.30;49.60;101108.44;105534;1297;71535;-86
2023/06/07 04:15:11;;;;;;;;;;;;;;;15.41;49.66;101112.11;105508;1297;59505;-86
2023/06/07 04:17:55;;;;;;;;;;;;;;;15.53;49.60;101110.23;105396;1299;59731;-86
2023/06/07 04:20:45;;;;;;;;;;;;;;;15.62;49.62;101107.70;105509;1296;72938;-86
2023/06/07 04:23:30;;;;;;;;;;;;;;;15.67;49.62;101107.90;105394;1297;67477;-86
2023/06/07 04:26:18;;;;;;;;;;;;;;;15.72;49.68;101109.67;105497;1300;71435;-88
2023/06/07 04:29:02;;;;;;;;;;;;;;;15.81;49.69;101108.36;105577;1297;58932;-88
2023/06/07 04:31:49;;;;;;;;;;;;;;;15.88;49.85;101107.11;105502;1296;59120;-88
2023/06/07 04:34:33;;;;;;;;;;;;;;;15.96;49.72;101108.09;105381;1297;74339;-87
2023/06/07 04:37:17;;;;;;;;;;;;;;;16.06;49.76;101106.75;105467;1300;68884;-87
2023/06/07 04:40:02;;;;;;;;;;;;;;;16.17;49.97;101105.86;105450;1297;71500;-87
2023/06/07 04:42:54;;;;;;;;;;;;;;;16.29;49.94;101103.20;105384;1297;59038;-87
2023/06/07 04:45:41;;;;;;;;;;;;;;;16.47;49.94;101106.81;105397;1299;59300;-87
2023/06/07 04:48:29;;;;;;;;;;;;;;;16.65;50.06;101109.17;105362;1297;73130;-87
2023/06/07 04:51:13;;;;;;;;;;;;;;;16.81;49.96;101110.73;105515;1296;68782;-88
2023/06/07 04:54:01;;;;;;;;;;;;;;;16.96;49.81;101112.30;105495;1300;71454;-87
2023/06/07 04:56:45;;;;;;;;;;;;;;;17.13;49.74;101115.52;105491;1298;58360;-87
2023/06/07 04:59:34;;;;;;;;;;;;;;;17.35;49.70;101111.94;105519;1300;59828;-88
2023/06/07 05:02:20;;;;;;;;;;;;;;;17.73;49.63;101109.52;105527;1297;73571;-88
2023/06/07 05:05:06;;;;;;;;;;;;;;;18.26;49.58;101114.74;105491;1298;67411;-88
2023/06/07 05:07:53;;;;;;;;;;;;;;;18.89;49.37;101114.08;105478;1300;73142;-88
2023/06/07 05:10:38;;;;;;;;;;;;;;;19.54;48.98;101118.72;105406;1298;59018;-88
2023/06/07 05:13:24;;;;;;;;;;;;;;;20.15;48.61;101111.66;105438;1299;59124;-88
2023/06/07 05:16:16;;;;;;;;;;;;;;;20.78;48.57;101117.67;105339;1299;74385;-88
2023/06/07 05:19:03;;;;;;;;;;;;;;;21.42;48.06;101116.59;105443;1297;68203;-89
2023/06/07 05:21:49;;;;;;;;;;;;;;;22.04;47.89;101121.14;105461;1299;71960;-89
2023/06/07 05:24:35;;;;;;;;;;;;;;;22.65;47.51;101120.46;105337;1297;59306;-89
2023/06/07 05:27:21;;;;;;;;;;;;;;;23.23;47.18;101123.13;105449;1299;59941;-89
2023/06/07 05:30:08;;;;;;;;;;;;;;;23.78;46.97;101118.14;105522;1297;73403;-89
2023/06/07 05:32:53;;;;;;;;;;;;;;;24.34;46.82;101119.12;105421;1297;68520;-88
2023/06/07 05:35:38;;;;;;;;;;;;;;;24.87;46.47;101120.98;105427;1299;71246;-89
2023/06/07 05:38:21;;;;;;;;;;;;;;;25.34;46.13;101129.09;105337;1298;59475;-89
2023/06/07 05:41:05;;;;;;;;;;;;;;;25.65;45.90;101123.18;105366;1299;59117;-89
2023/06/07 05:43:49;;;;;;;;;;;;;;;25.94;45.66;101124.08;105343;1301;74355;-89
2023/06/07 05:46:33;;;;;;;;;;;;;;;26.24;45.41;101125.03;105299;1299;68650;-89
2023/06/07 05:49:17;;;;;;;;;;;;;;;26.53;45.02;101125.02;105358;1300;72276;-89
2023/06/07 05:52:02;;;;;;;;;;;;;;;26.89;44.83;101127.10;105247;1297;58925;-89
2023/06/07 05:54:50;;;;;;;;;;;;;;;27.23;44.74;101126.90;105285;1300;59733;-89
2023/06/07 05:57:35;;;;;;;;;;;;;;;27.53;44.41;101125.45;105346;1297;73534;-87
2023/06/07 06:00:19;;;;;;;;;;;;;;;27.86;44.26;101121.89;105346;1297;67287;-87
2023/06/07 06:03:04;;;;;;;;;;;;;;;28.13;43.88;101120.62;105260;1300;71378;-87
2023/06/07 06:05:47;;;;;;;;;;;;;;;28.44;43.70;101125.88;105438;1300;61155;-87
2023/06/07 06:08:31;;;;;;;;;;;;;;;28.73;43.23;101128.49;105466;1297;59463;-87
2023/06/07 06:11:15;;;;;;;;;;;;;;;29.01;43.10;101132.42;105395;1299;73509;-87
2023/06/07 06:13:59;;;;;;;;;;;;;;;29.32;42.85;101136.13;105313;1297;68653;-87
2023/06/07 06:16:43;;;;;;;;;;;;;;;29.52;42.24;101138.11;105303;1297;71374;-87
2023/06/07 06:19:27;;;;;;;;;;;;;;;29.73;42.15;101141.52;105346;1297;59252;-87
2023/06/07 06:22:11;;;;;;;;;;;;;;;30.11;41.93;101138.33;105482;1300;60535;-87
2023/06/07 06:24:55;;;;;;;;;;;;;;;30.53;41.36;101137.86;105425;1298;75750;-87
2023/06/07 06:27:41;;;;;;;;;;;;;;;30.95;41.24;101140.75;105487;1298;67761;-87
2023/06/07 06:30:27;;;;;;;;;;;;;;;31.51;40.63;101138.64;105371;1297;71936;-87
2023/06/07 06:33:13;;;;;;;;;;;;;;;32.06;40.32;101138.54;105498;1298;59347;-87
2023/06/07 06:36:02;;;;;;;;;;;;;;;32.59;40.01;101139.50;105365;1299;58839;-87
2023/06/07 06:38:48;;;;;;;;;;;;;;;33.16;39.69;101141.16;105352;1300;74086;-87
2023/06/07 06:41:34;;;;;;;;;;;;;;;33.72;39.27;101141.61;105370;1299;67731;-87
2023/06/07 06:44:20;;;;;;;;;;;;;;;34.33;39.08;101139.65;105462;1300;72373;-87
2023/06/07 06:47:06;;;;;;;;;;;;;;;34.89;38.61;101143.70;105321;1297;248963;-87
2023/06/07 06:49:53;;;;;;;;;;;;;;;35.11;38.43;101142.89;105504;1299;59883;-87
2023/06/07 06:52:40;;;;;;;;;;;;;;;35.29;38.32;101147.61;105490;1300;75065;-87
2023/06/07 06:55:26;;;;;;;;;;;;;;;35.62;37.75;101139.77;105494;1297;68499;-87
2023/06/07 06:58:13;;;;;;;;;;;;;;;35.59;37.41;101136.69;105486;1298;71901;-87
2023/06/07 07:00:59;;;;;;;;;;;;;;;36.09;36.85;101142.22;105274;1300;59080;-87
2023/06/07 07:03:45;;;;;;;;;;;;;;;36.72;36.11;101139.83;105498;1297;58823;-87
2023/06/07 07:06:32;;;;;;;;;;;;;;;37.37;35.82;101141.41;105332;1300;73380;-87
2023/06/07 07:09:18;;;;;;;;;;;;;;;38.03;35.17;101136.59;105503;1297;69384;-88
2023/06/07 07:12:05;;;;;;;;;;;;;;;38.84;34.82;101146.17;105341;1297;71158;-87
2023/06/07 07:14:51;;;;;;;;;;;;;;;39.48;34.37;101143.83;105376;1297;59104;-88
2023/06/07 07:17:48;;;;;;;;;;;;;;;40.09;34.07;101141.05;105509;1297;58798;-87
2023/06/07 07:20:35;;;;;;;;;;;;;;;40.72;33.52;101145.99;105477;1297;74944;-88
2023/06/07 07:23:21;;;;;;;;;;;;;;;40.56;33.23;101142.99;105332;1298;67237;-88
2023/06/07 07:26:06;;;;;;;;;;;;;;;39.96;33.52;101149.27;105305;1300;73238;-88
2023/06/07 07:28:53;;;;;;;;;;;;;;;39.16;33.22;101153.91;105300;1302;58973;-88
2023/06/07 07:31:39;;;;;;;;;;;;;;;39.09;32.87;101153.22;105453;1303;59768;-88
2023/06/07 07:34:25;;;;;;;;;;;;;;;39.02;32.07;101156.04;105398;1297;73548;-88
2023/06/07 07:37:12;;;;;;;;;;;;;;;38.13;31.91;101152.02;105343;1299;67191;-87
2023/06/07 07:39:58;;;;;;;;;;;;;;;37.43;31.75;101152.13;105385;1297;73019;-87
2023/06/07 07:42:44;;;;;;;;;;;;;;;37.74;31.35;101150.58;105494;1299;59025;-87
2023/06/07 07:45:30;;;;;;;;;;;;;;;39.14;30.50;101151.23;105499;1297;60250;-87
2023/06/07 07:48:16;;;;;;;;;;;;;;;40.64;29.58;101152.94;105429;1298;73443;-87
2023/06/07 07:51:02;;;;;;;;;;;;;;;41.86;29.46;101149.40;105489;1298;67482;-87
2023/06/07 07:53:48;;;;;;;;;;;;;;;42.83;28.46;101153.65;105365;1299;71443;-87
2023/06/07 07:56:34;;;;;;;;;;;;;;;43.74;28.39;101154.43;105466;1297;58992;-88
2023/06/07 07:59:19;;;;;;;;;;;;;;;44.68;27.55;101151.05;105323;1297;61319;-88
2023/06/07 08:02:05;;;;;;;;;;;;;;;45.37;27.19;101149.90;105332;1297;74584;-88
2023/06/07 08:04:53;;;;;;;;;;;;;;;46.02;27.02;101147.52;105354;1297;60182;-88
2023/06/07 08:07:39;;;;;;;;;;;;;;;46.92;26.00;101147.33;105483;1297;63981;-88
2023/06/07 08:10:25;;;;;;;;;;;;;;;47.18;26.30;101151.83;105423;1297;59489;-88
2023/06/07 08:13:11;;;;;;;;;;;;;;;47.48;26.03;101147.39;105520;1297;59308;-88
2023/06/07 08:15:57;;;;;;;;;;;;;;;47.92;25.71;101147.31;105467;1299;66504;-88
2023/06/07 08:18:44;;;;;;;;;;;;;;;48.36;25.63;101146.45;105456;1297;59728;-88
2023/06/07 08:21:30;;;;;;;;;;;;;;;48.61;24.96;101148.30;105444;1299;63740;-88
2023/06/07 08:24:17;;;;;;;;;;;;;;;49.04;24.53;101146.96;105477;1297;59221;-88
2023/06/07 08:27:03;;;;;;;;;;;;;;;49.52;24.01;101144.27;105300;1299;58980;-88
2023/06/07 08:29:48;;;;;;;;;;;;;;;49.61;23.00;101140.00;105399;1297;65786;-88
2023/06/07 08:32:34;;;;;;;;;;;;;;;49.45;22.73;101136.32;105409;1297;59501;-88
2023/06/07 08:35:20;;;;;;;;;;;;;;;49.39;22.62;101133.27;105422;1302;62783;-88
2023/06/07 08:38:07;;;;;;;;;;;;;;;49.91;22.42;101136.20;105336;1297;60314;-88
2023/06/07 08:40:55;;;;;;;;;;;;;;;50.04;21.69;101137.65;105342;1300;58709;-88
2023/06/07 08:43:43;;;;;;;;;;;;;;;50.32;21.44;101132.91;105416;1302;66036;-88
2023/06/07 08:46:31;;;;;;;;;;;;;;;50.88;20.99;101134.70;105396;1297;59106;-88
2023/06/07 08:49:17;;;;;;;;;;;;;;;51.19;20.81;101136.61;105379;1297;63427;-88
2023/06/07 08:52:05;;;;;;;;;;;;;;;51.19;20.52;101132.88;105257;1302;59320;-88
2023/06/07 08:54:52;;;;;;;;;;;;;;;50.87;19.54;101129.29;105307;1300;59245;-88
2023/06/07 08:57:39;;;;;;;;;;;;;;;49.84;19.33;101127.49;105244;1299;65336;-88
2023/06/07 09:00:25;;;;;;;;;;;;;;;47.45;19.42;101122.27;105334;1300;60207;-88
2023/06/07 09:03:11;;;;;;;;;;;;;;;44.84;19.71;101113.35;105334;1300;71496;-87
2023/06/07 09:05:57;;;;;;;;;;;;;;;42.61;19.27;101116.50;105220;1298;59332;-87
2023/06/07 09:08:43;;;;;;;;;;;;;;;40.34;19.19;101109.95;105452;1298;58967;-87
2023/06/07 09:11:30;;;;;;;;;;;;;;;38.50;19.02;101110.46;105412;1300;74915;-87
2023/06/07 09:14:16;;;;;;;;;;;;;;;37.29;19.28;101101.71;105388;1297;68679;-86
2023/06/07 09:17:02;;;;;;;;;;;;;;;36.14;19.05;101106.52;105277;1299;71407;-86
2023/06/07 09:19:50;;;;;;;;;;;;;;;35.26;18.91;101112.19;105371;1301;59031;-86
2023/06/07 09:22:36;;;;;;;;;;;;;;;34.25;18.88;101107.29;105340;1301;59570;-86
2023/06/07 09:25:22;;;;;;;;;;;;;;;33.57;19.07;101106.88;105442;1299;73227;-86
2023/06/07 09:28:10;;;;;;;;;;;;;;;32.75;19.09;101109.85;105408;1298;68187;-86
2023/06/07 09:30:56;;;;;;;;;;;;;;;32.13;19.07;101113.83;105343;1302;73902;-86
2023/06/07 09:33:44;;;;;;;;;;;;;;;31.62;19.24;101114.89;105340;1303;58932;-86
2023/06/07 09:36:30;;;;;;;;;;;;;;;31.14;19.17;101120.11;105399;1297;59838;-86
2023/06/07 09:39:20;;;;;;;;;;;;;;;30.83;19.43;101116.02;105274;1299;73990;-86
2023/06/07 09:42:15;;;;;;;;;;;;;;;30.66;19.43;101115.21;105455;1301;68416;-86
2023/06/07 09:45:17;;;;;;;;;;;;;;;30.32;19.53;101116.35;105292;1302;71814;-86
2023/06/07 09:48:40;;;;;;;;;;;;;;;30.13;19.50;101116.48;105371;1299;59103;-86
2023/06/07 09:51:46;;;;;;;;;;;;;;;29.99;19.66;101107.77;105246;1299;59017;-86
2023/06/07 09:54:39;;;;;;;;;;;;;;;29.96;19.72;101104.45;105367;1299;73316;-86
2023/06/07 09:57:25;;;;;;;;;;;;;;;29.97;20.00;101101.88;105285;1298;67264;-86
2023/06/07 10:00:14;;;;;;;;;;;;;;;29.96;20.12;101101.80;105412;1300;72514;-86
2023/06/07 10:06:21;;;;;;;;;;;;;;;29.77;20.00;101098.16;105395;1298;59406;-86
2023/06/07 10:09:08;;;;;;;;;;;;;;;29.64;20.20;101096.99;105480;1297;74381;-86
2023/06/07 10:11:57;;;;;;;;;;;;;;;29.62;20.32;101096.51;105431;1298;67119;-86
2023/06/07 10:14:45;;;;;;;;;;;;;;;29.66;20.59;101092.76;105400;1297;71436;-86
2023/06/07 10:18:03;;;;;;;;;;;;;;;29.76;20.54;101085.30;105376;1301;59001;-86
2023/06/07 10:20:57;;;;;;;;;;;;;;;29.79;20.71;101086.77;105419;1299;59311;-86
2023/06/07 10:23:47;;;;;;;;;;;;;;;29.78;20.72;101084.99;105409;1301;73566;-86
2023/06/07 10:26:54;;;;;;;;;;;;;;;29.73;20.74;101079.54;105335;1298;68767;-86
2023/06/07 10:29:53;;;;;;;;;;;;;;;29.69;20.70;101082.58;105421;1299;73145;-86
2023/06/07 10:32:39;;;;;;;;;;;;;;;29.45;20.79;101077.59;105262;1300;59126;-86
2023/06/07 10:35:26;;;;;;;;;;;;;;;29.33;20.83;101076.65;105477;1298;59356;-86
2023/06/07 10:38:12;;;;;;;;;;;;;;;29.27;20.99;101074.85;105418;1298;73444;-86
2023/06/07 10:41:00;;;;;;;;;;;;;;;29.32;20.93;101070.84;105484;1299;67973;-86
2023/06/07 10:43:46;;;;;;;;;;;;;;;29.36;20.99;101075.38;105243;1299;73283;-86
2023/06/07 10:46:32;;;;;;;;;;;;;;;29.33;21.17;101075.11;105368;1298;59087;-86
2023/06/07 10:49:36;;;;;;;;;;;;;;;29.28;21.22;101078.38;105392;1297;59670;-86
2023/06/07 10:52:24;;;;;;;;;;;;;;;29.16;21.35;101073.20;105411;1299;73383;-86
2023/06/07 10:55:26;;;;;;;;;;;;;;;29.16;21.46;101068.89;105326;1298;69094;-86
2023/06/07 10:58:25;;;;;;;;;;;;;;;29.21;21.51;101071.66;105436;1302;71339;-86
2023/06/07 11:01:24;;;;;;;;;;;;;;;29.26;21.62;101073.59;105450;1297;59344;-86
2023/06/07 11:04:29;;;;;;;;;;;;;;;29.23;21.59;101075.09;105276;1297;59169;-86
2023/06/07 11:07:28;;;;;;;;;;;;;;;29.13;21.76;101080.77;105414;1297;73200;-86
2023/06/07 11:10:17;;;;;;;;;;;;;;;28.96;21.72;101083.45;105439;1300;67306;-86
2023/06/07 11:13:03;;;;;;;;;;;;;;;28.79;21.79;101079.96;105368;1302;72075;-86
2023/06/07 11:15:49;;;;;;;;;;;;;;;28.70;21.83;101070.77;105360;1299;59370;-86
2023/06/07 11:18:53;;;;;;;;;;;;;;;28.73;22.15;101068.36;105423;1297;58835;-86
2023/06/07 11:21:58;;;;;;;;;;;;;;;28.80;22.29;101066.76;105439;1297;73384;-86
2023/06/07 11:24:48;;;;;;;;;;;;;;;28.83;22.10;101068.60;105402;1297;69025;-86
2023/06/07 11:27:33;;;;;;;;;;;;;;;28.86;22.26;101066.80;105434;1299;72133;-86
2023/06/07 11:30:19;;;;;;;;;;;;;;;28.90;22.18;101062.31;105486;1297;59334;-86
2023/06/07 11:33:05;;;;;;;;;;;;;;;28.94;22.24;101063.94;105306;1300;59248;-85
2023/06/07 11:35:52;;;;;;;;;;;;;;;28.92;22.36;101067.42;105466;1299;73853;-86
2023/06/07 11:38:38;;;;;;;;;;;;;;;28.87;22.28;101060.30;105416;1297;67448;-86
2023/06/07 11:41:24;;;;;;;;;;;;;;;28.85;22.39;101064.14;105338;1297;72730;-85
2023/06/07 11:44:10;;;;;;;;;;;;;;;28.85;22.53;101056.02;105317;1299;59275;-85
2023/06/07 11:46:57;;;;;;;;;;;;;;;28.89;22.47;101056.56;105408;1297;59803;-85
2023/06/07 11:49:43;;;;;;;;;;;;;;;28.93;22.50;101050.36;105313;1297;73858;-86
2023/06/07 11:52:29;;;;;;;;;;;;;;;28.99;22.58;101047.73;105426;1299;67676;-86
2023/06/07 11:55:16;;;;;;;;;;;;;;;29.05;22.61;101045.07;105324;1297;72876;-86
2023/06/07 11:58:03;;;;;;;;;;;;;;;29.08;22.75;101041.08;105397;1297;58991;-85
2023/06/07 12:00:49;;;;;;;;;;;;;;;29.15;22.58;101040.11;105310;1299;60065;-85
2023/06/07 12:03:36;;;;;;;;;;;;;;;29.15;22.49;101038.66;105181;1300;73318;-85
2023/06/07 12:06:24;;;;;;;;;;;;;;;29.07;22.61;101037.96;105413;1302;68683;-85
2023/06/07 12:09:11;;;;;;;;;;;;;;;29.02;22.58;101033.67;105241;1297;71535;-85
2023/06/07 12:11:57;;;;;;;;;;;;;;;29.03;22.68;101038.16;105383;1297;59530;-85
2023/06/07 12:14:45;;;;;;;;;;;;;;;28.94;22.38;101037.33;105420;1297;58792;-85
2023/06/07 12:17:35;;;;;;;;;;;;;;;28.82;22.55;101036.20;105460;1297;74948;-85
2023/06/07 12:20:21;;;;;;;;;;;;;;;28.69;22.80;101035.75;105389;1299;67496;-85
2023/06/07 12:23:07;;;;;;;;;;;;;;;28.58;22.76;101028.32;105279;1297;71555;-85
2023/06/07 12:26:14;;;;;;;;;;;;;;;28.49;22.64;101031.60;105301;1300;59539;-85
2023/06/07 12:29:01;;;;;;;;;;;;;;;28.45;22.73;101021.87;105452;1297;59757;-85
2023/06/07 12:31:48;;;;;;;;;;;;;;;28.46;22.90;101023.37;105348;1297;73272;-85
2023/06/07 12:34:34;;;;;;;;;;;;;;;28.45;22.86;101024.68;105419;1297;68214;-85
2023/06/07 12:37:20;;;;;;;;;;;;;;;28.46;22.67;101020.31;105391;1297;71264;-85
2023/06/07 12:40:08;;;;;;;;;;;;;;;28.46;22.97;101017.30;105370;1299;59300;-85
2023/06/07 12:42:54;;;;;;;;;;;;;;;28.59;23.17;101011.20;105369;1297;59016;-85
2023/06/07 12:45:40;;;;;;;;;;;;;;;28.73;23.03;101010.70;105478;1299;74471;-85
2023/06/07 12:48:25;;;;;;;;;;;;;;;28.84;23.10;101009.42;105463;1299;68348;-85
2023/06/07 12:51:12;;;;;;;;;;;;;;;28.89;22.90;101014.27;105426;1297;71596;-85
2023/06/07 12:53:58;;;;;;;;;;;;;;;28.87;22.81;101007.92;105304;1297;60029;-86
2023/06/07 13:13:37;;;;;;;;;;;;;;;28.70;22.86;101005.86;105577;1296;59083;-85
2023/06/07 13:16:22;;;;;;;;;;;;;;;28.63;23.03;101001.41;105399;1297;73434;-85
2023/06/07 13:19:08;;;;;;;;;;;;;;;28.61;22.95;101000.95;105429;1296;67550;-85
2023/06/07 13:21:54;;;;;;;;;;;;;;;28.61;23.18;100997.95;105451;1297;72570;-85
2023/06/07 13:24:40;;;;;;;;;;;;;;;28.60;23.05;101000.46;105529;1296;58963;-85
2023/06/07 13:27:26;;;;;;;;;;;;;;;28.54;23.15;101001.02;105401;1297;59286;-85
2023/06/07 13:30:13;;;;;;;;;;;;;;;28.45;23.11;101001.64;105476;1296;74086;-85
2023/06/07 13:32:58;;;;;;;;;;;;;;;28.37;23.12;101003.53;105479;1296;67575;-85
2023/06/07 13:35:44;;;;;;;;;;;;;;;28.35;23.21;100995.91;105399;1297;72145;-85
2023/06/07 13:38:31;;;;;;;;;;;;;;;28.39;23.17;100991.86;105523;1297;59292;-85
2023/06/07 13:41:17;;;;;;;;;;;;;;;28.45;23.08;100988.84;105428;1297;59360;-85
2023/06/07 13:44:03;;;;;;;;;;;;;;;28.50;23.11;100986.31;105382;1297;73397;-85
2023/06/07 13:46:50;;;;;;;;;;;;;;;28.56;23.12;100986.66;105450;1298;67369;-85
2023/06/07 13:49:36;;;;;;;;;;;;;;;28.63;23.13;100979.25;105508;1297;71046;-85
2023/06/07 13:52:20;;;;;;;;;;;;;;;28.74;23.19;100976.00;105248;1300;59100;-85
2023/06/07 13:55:04;;;;;;;;;;;;;;;28.83;23.20;100973.71;105269;1299;59979;-85
2023/06/07 13:57:49;;;;;;;;;;;;;;;28.86;23.10;100968.11;105261;1300;75140;-85
2023/06/07 14:00:33;;;;;;;;;;;;;;;28.85;23.07;100965.49;105337;1297;68211;-85
2023/06/07 14:03:17;;;;;;;;;;;;;;;28.83;23.05;100961.59;105074;1297;201223;-85
2023/06/07 14:06:02;;;;;;;;;;;;;;;28.79;22.89;100960.65;105378;1296;59608;-85
2023/06/07 14:08:47;;;;;;;;;;;;;;;28.78;22.87;100969.85;105123;1300;59401;-85
2023/06/07 14:11:33;;;;;;;;;;;;;;;28.72;22.82;100965.92;105387;1296;73389;-85
2023/06/07 14:14:17;;;;;;;;;;;;;;;28.70;22.88;100964.48;105329;1296;68116;-85
2023/06/07 14:17:01;;;;;;;;;;;;;;;28.69;22.96;100965.50;105301;1297;72673;-85
2023/06/07 14:19:45;;;;;;;;;;;;;;;28.69;22.96;100962.47;105351;1296;59238;-85
2023/06/07 14:22:29;;;;;;;;;;;;;;;28.66;22.97;100962.73;105179;1297;59837;-85
2023/06/07 14:25:13;;;;;;;;;;;;;;;28.54;22.87;100963.96;105279;1297;74705;-85
2023/06/07 14:27:57;;;;;;;;;;;;;;;28.48;22.88;100958.83;105284;1297;68477;-85